createdAt,value
2022-12-06T00:01:47.431Z,0.90
2022-12-06T00:04:13.960Z,0.90
2022-12-06T00:06:40.738Z,1.00
2022-12-06T00:09:07.271Z,1.00
2022-12-06T00:11:33.843Z,1.00
2022-12-06T00:14:00.401Z,1.00
2022-12-06T00:16:27.067Z,1.00
2022-12-06T00:18:53.647Z,1.00
2022-12-06T00:21:23.390Z,1.00
2022-12-06T00:23:49.930Z,0.90
2022-12-06T00:26:16.623Z,0.90
2022-12-06T00:28:43.154Z,0.90
2022-12-06T00:31:09.714Z,0.90
2022-12-06T00:33:36.256Z,0.90
2022-12-06T00:36:02.753Z,0.90
2022-12-06T00:38:29.307Z,1.00
2022-12-06T00:40:55.850Z,1.00
2022-12-06T00:43:22.395Z,1.00
2022-12-06T00:45:48.988Z,1.00
2022-12-06T00:48:15.537Z,1.00
2022-12-06T00:50:42.068Z,1.00
2022-12-06T00:55:36.422Z,1.00
2022-12-06T00:58:02.938Z,1.00
2022-12-06T01:00:29.431Z,0.90
2022-12-06T01:02:55.976Z,1.00
2022-12-06T01:05:22.639Z,1.00
2022-12-06T01:07:49.257Z,1.00
2022-12-06T01:10:15.843Z,1.00
2022-12-06T01:12:42.344Z,1.00
2022-12-06T01:15:08.824Z,1.00
2022-12-06T01:17:35.378Z,1.00
2022-12-06T01:20:02.160Z,1.00
2022-12-06T01:22:28.946Z,1.00
2022-12-06T01:24:55.446Z,1.00
2022-12-06T01:27:21.950Z,0.90
2022-12-06T01:29:48.442Z,0.90
2022-12-06T01:32:14.949Z,0.90
2022-12-06T01:34:41.459Z,0.90
2022-12-06T01:37:07.973Z,0.90
2022-12-06T01:39:34.454Z,1.00
2022-12-06T01:42:00.935Z,1.00
2022-12-06T01:44:27.806Z,0.90
2022-12-06T01:46:54.324Z,1.00
2022-12-06T01:49:20.904Z,1.00
2022-12-06T01:51:47.395Z,1.00
2022-12-06T01:54:13.850Z,1.00
2022-12-06T01:56:40.351Z,1.00
2022-12-06T01:59:06.928Z,1.10
2022-12-06T02:01:33.478Z,1.00
2022-12-06T02:04:00.975Z,1.00
2022-12-06T02:06:27.448Z,1.00
2022-12-06T02:08:53.915Z,1.00
2022-12-06T02:11:20.432Z,1.00
2022-12-06T02:13:46.983Z,1.10
2022-12-06T02:16:13.469Z,1.10
2022-12-06T02:18:40.013Z,1.00
2022-12-06T02:21:07.555Z,1.10
2022-12-06T02:23:34.292Z,1.10
2022-12-06T02:26:00.818Z,1.00
2022-12-06T02:28:27.311Z,1.10
2022-12-06T02:30:53.853Z,1.10
2022-12-06T02:33:20.608Z,1.10
2022-12-06T02:35:47.128Z,1.00
2022-12-06T02:38:13.637Z,1.10
2022-12-06T02:40:40.124Z,1.10
2022-12-06T02:43:06.631Z,1.10
2022-12-06T02:45:33.117Z,1.10
2022-12-06T02:47:59.650Z,1.10
2022-12-06T02:50:26.139Z,1.20
2022-12-06T02:52:52.684Z,1.20
2022-12-06T02:55:19.347Z,1.10
2022-12-06T02:57:45.847Z,1.20
2022-12-06T03:00:12.430Z,1.10
2022-12-06T03:02:39.357Z,1.20
2022-12-06T03:05:05.875Z,1.20
2022-12-06T03:07:32.944Z,1.10
2022-12-06T03:09:59.843Z,1.00
2022-12-06T03:12:26.628Z,1.00
2022-12-06T03:14:53.106Z,1.00
2022-12-06T03:17:19.744Z,1.00
2022-12-06T03:19:46.217Z,1.00
2022-12-06T03:22:12.767Z,1.00
2022-12-06T03:24:39.292Z,1.00
2022-12-06T03:27:05.807Z,1.00
2022-12-06T03:29:32.318Z,1.00
2022-12-06T03:31:58.793Z,1.00
2022-12-06T03:34:25.281Z,1.00
2022-12-06T03:36:51.801Z,1.00
2022-12-06T03:39:18.312Z,1.00
2022-12-06T03:41:44.800Z,0.90
2022-12-06T03:44:11.283Z,0.90
2022-12-06T03:46:37.782Z,0.90
2022-12-06T03:49:04.390Z,0.90
2022-12-06T03:51:30.893Z,0.90
2022-12-06T03:53:57.404Z,1.00
2022-12-06T03:56:23.883Z,1.00
2022-12-06T03:58:50.435Z,1.00
2022-12-06T04:01:16.996Z,1.10
2022-12-06T04:03:43.546Z,1.10
2022-12-06T04:06:10.048Z,1.20
2022-12-06T04:08:36.561Z,1.20
2022-12-06T04:11:03.040Z,1.20
2022-12-06T04:13:29.561Z,1.20
2022-12-06T04:15:56.149Z,1.20
2022-12-06T04:18:22.683Z,1.20
2022-12-06T04:21:08.026Z,1.20
2022-12-06T04:23:34.573Z,1.20
2022-12-06T04:26:01.066Z,1.20
2022-12-06T04:28:46.429Z,1.20
2022-12-06T04:31:31.380Z,1.20
2022-12-06T04:34:16.608Z,1.30
2022-12-06T04:37:01.639Z,1.30
2022-12-06T04:39:28.146Z,1.30
2022-12-06T04:42:13.526Z,1.30
2022-12-06T04:44:40.039Z,1.30
2022-12-06T04:47:06.638Z,1.30
2022-12-06T04:49:33.153Z,1.30
2022-12-06T04:51:59.654Z,1.30
2022-12-06T04:54:26.187Z,1.30
2022-12-06T04:56:53.074Z,1.30
2022-12-06T04:59:20.038Z,1.30
2022-12-06T05:01:46.514Z,1.40
2022-12-06T05:04:13.074Z,1.40
2022-12-06T05:06:39.621Z,1.40
2022-12-06T05:09:06.103Z,1.40
2022-12-06T05:11:32.594Z,1.40
2022-12-06T05:13:59.071Z,1.40
2022-12-06T05:16:25.600Z,1.40
2022-12-06T05:18:52.171Z,1.50
2022-12-06T05:21:18.662Z,1.50
2022-12-06T05:23:45.171Z,1.50
2022-12-06T05:26:11.669Z,1.50
2022-12-06T05:28:38.180Z,1.50
2022-12-06T05:31:04.701Z,1.50
2022-12-06T05:33:31.241Z,1.50
2022-12-06T05:35:57.744Z,1.50
2022-12-06T05:38:24.238Z,1.50
2022-12-06T05:40:50.705Z,1.50
2022-12-06T05:43:17.282Z,1.50
2022-12-06T05:45:43.903Z,1.50
2022-12-06T05:48:10.451Z,1.40
2022-12-06T05:50:36.978Z,1.50
2022-12-06T05:53:03.467Z,1.50
2022-12-06T05:55:29.981Z,1.50
2022-12-06T05:57:56.526Z,1.40
2022-12-06T06:00:23.327Z,1.50
2022-12-06T06:02:50.010Z,1.50
2022-12-06T06:05:16.637Z,1.50
2022-12-06T06:07:43.254Z,1.50
2022-12-06T06:10:09.856Z,1.50
2022-12-06T06:12:36.343Z,1.50
2022-12-06T06:15:05.057Z,1.60
2022-12-06T06:17:31.577Z,1.60
2022-12-06T06:19:58.051Z,1.60
2022-12-06T06:22:24.667Z,1.60
2022-12-06T06:24:51.583Z,1.60
2022-12-06T06:27:18.051Z,1.60
2022-12-06T06:29:57.107Z,1.60
2022-12-06T06:32:23.774Z,1.60
2022-12-06T06:34:50.354Z,1.60
2022-12-06T06:37:16.883Z,1.60
2022-12-06T06:39:43.460Z,1.50
2022-12-06T06:42:09.948Z,1.60
2022-12-06T06:44:36.403Z,1.60
2022-12-06T06:47:02.979Z,1.60
2022-12-06T06:49:29.549Z,1.60
2022-12-06T06:51:56.120Z,1.60
2022-12-06T06:56:50.439Z,1.60
2022-12-06T06:59:16.954Z,1.60
2022-12-06T07:01:43.534Z,1.60
2022-12-06T07:04:10.126Z,1.60
2022-12-06T07:06:36.632Z,1.60
2022-12-06T07:09:03.121Z,1.60
2022-12-06T07:11:29.648Z,1.60
2022-12-06T07:13:56.141Z,1.60
2022-12-06T07:16:22.809Z,1.70
2022-12-06T07:18:49.524Z,1.60
2022-12-06T07:21:16.000Z,1.70
2022-12-06T07:23:42.536Z,1.60
2022-12-06T07:26:09.242Z,1.70
2022-12-06T07:28:35.853Z,1.60
2022-12-06T07:31:02.390Z,1.60
2022-12-06T07:33:28.930Z,1.70
2022-12-06T07:36:12.843Z,1.70
2022-12-06T07:38:39.998Z,1.70
2022-12-06T07:41:25.237Z,1.70
2022-12-06T07:44:10.784Z,1.70
2022-12-06T07:46:37.491Z,1.70
2022-12-06T07:49:04.009Z,1.70
2022-12-06T07:51:30.520Z,1.70
2022-12-06T07:53:57.001Z,1.60
2022-12-06T07:56:23.490Z,1.70
2022-12-06T07:58:50.053Z,1.60
2022-12-06T08:01:16.617Z,1.70
2022-12-06T08:03:43.157Z,1.70
2022-12-06T08:06:09.659Z,1.70
2022-12-06T08:08:36.255Z,1.70
2022-12-06T08:11:02.809Z,1.70
2022-12-06T08:13:29.300Z,1.70
2022-12-06T08:15:55.869Z,1.80
2022-12-06T08:18:22.745Z,1.80
2022-12-06T08:20:50.285Z,1.80
2022-12-06T08:23:16.793Z,1.70
2022-12-06T08:25:43.452Z,1.70
2022-12-06T08:28:09.952Z,1.70
2022-12-06T08:30:36.573Z,1.70
2022-12-06T08:33:03.124Z,1.70
2022-12-06T08:35:29.626Z,1.70
2022-12-06T08:37:56.127Z,1.60
2022-12-06T08:40:22.614Z,1.60
2022-12-06T08:42:49.165Z,1.60
2022-12-06T08:45:15.659Z,1.60
2022-12-06T08:47:42.165Z,1.50
2022-12-06T08:50:08.685Z,1.50
2022-12-06T08:52:35.231Z,1.60
2022-12-06T08:55:01.711Z,1.60
2022-12-06T08:57:28.232Z,1.60
2022-12-06T08:59:55.469Z,1.60
2022-12-06T09:02:22.026Z,1.70
2022-12-06T09:04:49.101Z,1.70
2022-12-06T09:07:15.891Z,1.60
2022-12-06T09:09:42.359Z,1.70
2022-12-06T09:12:08.883Z,1.70
2022-12-06T09:14:35.370Z,1.80
2022-12-06T09:17:01.899Z,1.80
2022-12-06T09:19:28.376Z,1.80
2022-12-06T09:21:54.871Z,1.80
2022-12-06T09:24:21.851Z,1.80
2022-12-06T09:26:48.405Z,1.90
2022-12-06T09:29:15.132Z,1.90
2022-12-06T09:31:41.801Z,1.90
2022-12-06T09:34:08.475Z,1.90
2022-12-06T09:36:34.972Z,1.90
2022-12-06T09:39:01.470Z,1.90
2022-12-06T09:41:27.949Z,1.90
2022-12-06T09:43:54.519Z,1.90
2022-12-06T09:46:21.090Z,1.90
2022-12-06T09:48:49.412Z,1.90
2022-12-06T09:51:16.012Z,1.90
2022-12-06T09:53:42.549Z,1.90
2022-12-06T09:56:09.045Z,1.90
2022-12-06T09:58:35.511Z,1.90
2022-12-06T10:01:02.042Z,2.00
2022-12-06T10:03:28.603Z,1.90
2022-12-06T10:05:55.435Z,1.90
2022-12-06T10:08:22.041Z,1.90
2022-12-06T10:10:48.607Z,1.90
2022-12-06T10:13:15.120Z,2.00
2022-12-06T10:15:41.672Z,1.90
2022-12-06T10:18:08.197Z,1.90
2022-12-06T10:20:34.724Z,2.00
2022-12-06T10:23:01.296Z,2.00
2022-12-06T10:25:27.865Z,2.00
2022-12-06T10:27:54.342Z,2.10
2022-12-06T10:30:20.813Z,2.10
2022-12-06T10:32:47.279Z,2.10
2022-12-06T10:35:13.755Z,2.10
2022-12-06T10:37:40.279Z,2.10
2022-12-06T10:40:07.019Z,2.10
2022-12-06T10:42:33.740Z,2.10
2022-12-06T10:45:00.232Z,2.20
2022-12-06T10:47:26.716Z,2.10
2022-12-06T10:49:53.289Z,2.10
2022-12-06T10:52:19.766Z,2.10
2022-12-06T10:54:46.255Z,2.20
2022-12-06T10:57:12.780Z,2.10
2022-12-06T10:59:39.368Z,2.20
2022-12-06T11:02:05.941Z,2.20
2022-12-06T11:04:32.509Z,2.20
2022-12-06T11:06:58.997Z,2.20
2022-12-06T11:09:25.553Z,2.20
2022-12-06T11:11:52.033Z,2.20
2022-12-06T11:14:18.576Z,2.30
2022-12-06T11:16:45.137Z,2.30
2022-12-06T11:19:11.674Z,2.30
2022-12-06T11:21:38.233Z,2.30
2022-12-06T11:24:05.351Z,2.40
2022-12-06T11:26:31.927Z,2.30
2022-12-06T11:29:05.692Z,2.30
2022-12-06T11:31:32.301Z,2.30
2022-12-06T11:33:59.013Z,2.30
2022-12-06T11:36:25.507Z,2.30
2022-12-06T11:38:52.048Z,2.30
2022-12-06T11:41:18.659Z,2.30
2022-12-06T11:43:45.148Z,2.30
2022-12-06T11:46:11.767Z,2.30
2022-12-06T11:48:38.340Z,2.30
2022-12-06T11:51:04.859Z,2.30
2022-12-06T11:53:32.326Z,2.40
2022-12-06T11:55:58.809Z,2.40
2022-12-06T11:58:26.837Z,2.40
2022-12-06T12:00:53.338Z,2.50
2022-12-06T12:03:19.922Z,2.50
2022-12-06T12:05:46.488Z,2.50
2022-12-06T12:08:13.155Z,2.50
2022-12-06T12:10:39.805Z,2.50
2022-12-06T12:13:25.281Z,2.50
2022-12-06T12:15:51.862Z,2.50
2022-12-06T12:18:18.364Z,2.60
2022-12-06T12:20:44.845Z,2.50
2022-12-06T12:23:11.428Z,2.50
2022-12-06T12:25:42.204Z,2.60
2022-12-06T12:28:08.736Z,2.60
2022-12-06T12:30:36.148Z,2.60
2022-12-06T12:33:02.628Z,2.60
2022-12-06T12:35:29.234Z,2.70
2022-12-06T12:37:55.910Z,2.70
2022-12-06T12:40:22.445Z,2.70
2022-12-06T12:42:48.994Z,2.70
2022-12-06T12:45:15.498Z,2.70
2022-12-06T12:47:41.980Z,2.70
2022-12-06T12:50:08.465Z,2.70
2022-12-06T12:52:34.975Z,2.70
2022-12-06T12:57:35.844Z,2.70
2022-12-06T13:00:02.349Z,2.70
2022-12-06T13:02:28.987Z,2.70
2022-12-06T13:05:10.979Z,2.60
2022-12-06T13:07:42.196Z,2.60
2022-12-06T13:10:08.910Z,2.60
2022-12-06T13:12:35.455Z,2.60
2022-12-06T13:15:02.173Z,2.60
2022-12-06T13:17:28.763Z,2.60
2022-12-06T13:19:55.305Z,2.60
2022-12-06T13:22:23.987Z,2.70
2022-12-06T13:24:50.559Z,2.70
2022-12-06T13:27:17.268Z,2.70
2022-12-06T13:29:43.754Z,2.70
2022-12-06T13:32:10.314Z,2.70
2022-12-06T13:34:38.068Z,2.70
2022-12-06T13:37:04.788Z,2.70
2022-12-06T13:39:31.300Z,2.80
2022-12-06T13:42:16.682Z,2.70
2022-12-06T13:44:43.266Z,2.80
2022-12-06T13:47:09.767Z,2.80
2022-12-06T13:49:40.967Z,2.80
2022-12-06T13:52:09.163Z,2.70
2022-12-06T13:54:35.707Z,2.70
2022-12-06T13:57:02.220Z,2.70
2022-12-06T13:59:28.695Z,2.60
2022-12-06T14:01:55.909Z,2.70
2022-12-06T14:04:22.534Z,2.70
2022-12-06T14:06:49.021Z,2.70
2022-12-06T14:09:15.505Z,2.70
2022-12-06T14:11:42.120Z,2.70
2022-12-06T14:14:08.920Z,2.70
2022-12-06T14:16:35.585Z,2.70
2022-12-06T14:19:02.186Z,2.60
2022-12-06T14:21:28.817Z,2.60
2022-12-06T14:23:55.351Z,2.60
2022-12-06T14:26:21.993Z,2.60
2022-12-06T14:28:48.563Z,2.60
2022-12-06T14:31:15.121Z,2.60
2022-12-06T14:33:41.601Z,2.60
2022-12-06T14:36:10.738Z,2.60
2022-12-06T14:38:40.713Z,2.50
2022-12-06T14:41:26.061Z,2.50
2022-12-06T14:43:52.585Z,2.50
2022-12-06T14:46:19.164Z,2.50
2022-12-06T14:49:06.120Z,2.50
2022-12-06T14:51:32.642Z,2.50
2022-12-06T14:53:59.128Z,2.50
2022-12-06T14:56:25.633Z,2.50
2022-12-06T14:58:52.233Z,2.60
2022-12-06T15:01:18.756Z,2.50
2022-12-06T15:03:45.365Z,2.50
2022-12-06T15:06:11.970Z,2.50
2022-12-06T15:08:38.557Z,2.50
2022-12-06T15:11:05.106Z,2.50
2022-12-06T15:13:31.635Z,2.50
2022-12-06T15:15:58.969Z,2.50
2022-12-06T15:18:25.596Z,2.50
2022-12-06T15:20:53.379Z,2.50
2022-12-06T15:23:19.916Z,2.50
2022-12-06T15:25:46.410Z,2.50
2022-12-06T15:28:16.962Z,2.40
2022-12-06T15:30:46.294Z,2.40
2022-12-06T15:33:12.821Z,2.50
2022-12-06T15:35:39.351Z,2.40
2022-12-06T15:38:05.855Z,2.40
2022-12-06T15:40:32.489Z,2.40
2022-12-06T15:43:02.383Z,2.50
2022-12-06T15:45:31.986Z,2.40
2022-12-06T15:47:58.527Z,2.40
2022-12-06T15:50:24.994Z,2.30
2022-12-06T15:52:51.486Z,2.30
2022-12-06T15:55:18.054Z,2.30
2022-12-06T15:57:44.552Z,2.20
2022-12-06T16:00:11.052Z,2.20
2022-12-06T16:02:37.526Z,2.20
2022-12-06T16:05:04.236Z,2.20
2022-12-06T16:07:30.998Z,2.20
2022-12-06T16:09:57.495Z,2.10
2022-12-06T16:12:24.135Z,2.10
2022-12-06T16:14:50.668Z,2.10
2022-12-06T16:17:17.177Z,2.10
2022-12-06T16:20:02.622Z,2.10
2022-12-06T16:22:48.010Z,2.10
2022-12-06T16:25:14.491Z,2.10
2022-12-06T16:27:40.987Z,2.10
2022-12-06T16:30:07.895Z,2.20
2022-12-06T16:32:34.404Z,2.20
2022-12-06T16:35:01.114Z,2.20
2022-12-06T16:37:27.863Z,2.20
2022-12-06T16:39:54.352Z,2.30
2022-12-06T16:42:20.819Z,2.30
2022-12-06T16:44:53.357Z,2.30
2022-12-06T16:49:47.433Z,2.30
2022-12-06T16:52:14.755Z,2.30
2022-12-06T16:54:41.984Z,2.30
2022-12-06T16:57:09.790Z,2.30
2022-12-06T16:59:36.479Z,2.30
2022-12-06T17:02:05.899Z,2.30
2022-12-06T17:04:35.099Z,2.30
2022-12-06T17:07:01.767Z,2.40
2022-12-06T17:09:28.296Z,2.40
2022-12-06T17:12:06.043Z,2.40
2022-12-06T17:14:32.541Z,2.40
2022-12-06T17:17:03.609Z,2.40
2022-12-06T17:19:31.456Z,2.40
2022-12-06T17:21:57.952Z,2.30
2022-12-06T17:24:24.404Z,2.40
2022-12-06T17:26:50.903Z,2.30
2022-12-06T17:29:17.512Z,2.40
2022-12-06T17:31:44.139Z,2.40
2022-12-06T17:34:10.680Z,2.30
2022-12-06T17:36:37.187Z,2.40
2022-12-06T17:39:04.514Z,2.40
2022-12-06T17:41:51.980Z,2.40
2022-12-06T17:44:18.811Z,2.40
2022-12-06T17:46:45.282Z,2.30
2022-12-06T17:49:11.803Z,2.30
2022-12-06T17:51:38.320Z,2.30
2022-12-06T17:54:09.205Z,2.30
2022-12-06T17:56:36.121Z,2.30
2022-12-06T17:59:02.641Z,2.30
2022-12-06T18:01:44.804Z,2.30
2022-12-06T18:04:15.761Z,2.30
2022-12-06T18:06:42.558Z,2.40
2022-12-06T18:09:09.084Z,2.40
2022-12-06T18:11:35.557Z,2.30
2022-12-06T18:14:02.033Z,2.30
2022-12-06T18:16:28.559Z,2.30
2022-12-06T18:18:55.104Z,2.30
2022-12-06T18:21:21.598Z,2.30
2022-12-06T18:24:19.709Z,2.30
2022-12-06T18:26:35.772Z,2.30
2022-12-06T18:29:02.288Z,2.30
2022-12-06T18:31:28.812Z,2.30
2022-12-06T18:33:55.330Z,2.30
2022-12-06T18:36:21.888Z,2.30
2022-12-06T18:38:49.220Z,2.30
2022-12-06T18:41:16.103Z,2.30
2022-12-06T18:43:42.681Z,2.30
2022-12-06T18:46:09.290Z,2.40
2022-12-06T18:48:35.818Z,2.40
2022-12-06T18:51:02.303Z,2.40
2022-12-06T18:53:28.855Z,2.50
2022-12-06T18:55:55.368Z,2.50
2022-12-06T18:58:21.837Z,2.40
2022-12-06T19:00:48.444Z,2.50
2022-12-06T19:03:16.038Z,2.50
2022-12-06T19:06:01.908Z,2.40
2022-12-06T19:08:29.060Z,2.40
2022-12-06T19:10:55.530Z,2.50
2022-12-06T19:13:21.999Z,2.50
2022-12-06T19:15:48.520Z,2.50
2022-12-06T19:18:14.994Z,2.50
2022-12-06T19:20:41.521Z,2.60
2022-12-06T19:23:07.977Z,2.60
2022-12-06T19:25:34.486Z,2.50
2022-12-06T19:28:02.696Z,2.60
2022-12-06T19:30:29.465Z,2.60
2022-12-06T19:32:56.017Z,2.60
2022-12-06T19:35:22.547Z,2.60
2022-12-06T19:37:49.928Z,2.60
2022-12-06T19:40:16.475Z,2.60
2022-12-06T19:43:01.730Z,2.60
2022-12-06T19:45:28.226Z,2.60
2022-12-06T19:47:54.723Z,2.50
2022-12-06T19:50:21.235Z,2.60
2022-12-06T19:52:47.753Z,2.60
2022-12-06T19:55:14.259Z,2.60
2022-12-06T19:57:40.782Z,2.60
2022-12-06T20:00:07.321Z,2.60
2022-12-06T20:02:33.857Z,2.60
2022-12-06T20:05:00.375Z,2.60
2022-12-06T20:07:26.852Z,2.60
2022-12-06T20:09:53.361Z,2.60
2022-12-06T20:12:19.836Z,2.60
2022-12-06T20:14:46.392Z,2.70
2022-12-06T20:17:12.958Z,2.70
2022-12-06T20:19:39.576Z,2.70
2022-12-06T20:22:06.198Z,2.70
2022-12-06T20:24:32.668Z,2.80
2022-12-06T20:26:59.380Z,2.80
2022-12-06T20:29:27.033Z,2.80
2022-12-06T20:31:53.592Z,2.80
2022-12-06T20:34:20.172Z,2.80
2022-12-06T20:36:46.781Z,2.80
2022-12-06T20:39:13.284Z,2.80
2022-12-06T20:41:39.862Z,2.90
2022-12-06T20:44:06.349Z,2.90
2022-12-06T20:46:32.917Z,2.90
2022-12-06T20:49:03.561Z,2.90
2022-12-06T20:51:30.098Z,2.90
2022-12-06T20:53:59.716Z,2.90
2022-12-06T20:56:26.252Z,2.90
2022-12-06T20:58:52.774Z,2.90
2022-12-06T21:01:19.871Z,2.90
2022-12-06T21:03:46.560Z,2.90
2022-12-06T21:06:13.088Z,2.90
2022-12-06T21:08:39.573Z,2.90
2022-12-06T21:11:23.278Z,2.90
2022-12-06T21:13:50.643Z,2.90
2022-12-06T21:16:17.323Z,2.90
2022-12-06T21:18:43.905Z,2.90
2022-12-06T21:21:10.414Z,2.90
2022-12-06T21:23:37.499Z,2.80
2022-12-06T21:26:04.059Z,2.90
2022-12-06T21:28:30.551Z,2.90
2022-12-06T21:30:57.140Z,2.90
2022-12-06T21:33:23.653Z,2.90
2022-12-06T21:35:50.106Z,2.90
2022-12-06T21:38:16.674Z,2.90
2022-12-06T21:40:45.698Z,2.80
2022-12-06T21:43:14.455Z,2.90
2022-12-06T21:45:40.941Z,2.90
2022-12-06T21:48:07.424Z,2.90
2022-12-06T21:50:33.926Z,2.90
2022-12-06T21:53:00.403Z,2.90
2022-12-06T21:55:26.885Z,2.90
2022-12-06T21:57:53.363Z,2.90
2022-12-06T22:00:19.840Z,2.90
2022-12-06T22:02:46.465Z,2.90
2022-12-06T22:05:13.411Z,2.90
2022-12-06T22:07:40.041Z,2.90
2022-12-06T22:10:06.621Z,2.90
2022-12-06T22:12:33.087Z,2.90
2022-12-06T22:14:59.604Z,3.00
2022-12-06T22:17:26.172Z,3.00
2022-12-06T22:19:52.836Z,3.00
2022-12-06T22:22:19.605Z,3.00
2022-12-06T22:24:46.110Z,3.00
2022-12-06T22:27:12.629Z,3.00
2022-12-06T22:29:39.192Z,3.00
2022-12-06T22:32:05.654Z,3.00
2022-12-06T22:34:32.621Z,3.00
2022-12-06T22:36:59.119Z,3.10
2022-12-06T22:39:25.690Z,3.10
2022-12-06T22:41:52.166Z,3.10
2022-12-06T22:44:19.398Z,3.10
2022-12-06T22:46:45.969Z,3.10
2022-12-06T22:49:16.535Z,3.10
2022-12-06T22:51:44.682Z,3.10
2022-12-06T22:54:11.428Z,3.10
2022-12-06T22:56:39.623Z,3.10
2022-12-06T22:59:06.118Z,3.10
2022-12-06T23:01:32.790Z,3.10
2022-12-06T23:03:59.407Z,3.10
2022-12-06T23:06:25.953Z,3.10
2022-12-06T23:08:52.487Z,3.10
2022-12-06T23:11:19.053Z,3.10
2022-12-06T23:13:45.546Z,3.10
2022-12-06T23:16:12.169Z,3.10
2022-12-06T23:18:38.743Z,3.10
2022-12-06T23:21:05.280Z,3.10
2022-12-06T23:23:31.795Z,3.10
2022-12-06T23:25:58.343Z,3.10
2022-12-06T23:28:24.860Z,3.10
2022-12-06T23:30:51.386Z,3.10
2022-12-06T23:33:22.527Z,3.10
2022-12-06T23:35:49.371Z,3.10
2022-12-06T23:38:15.839Z,3.10
2022-12-06T23:40:42.359Z,3.10
2022-12-06T23:43:08.851Z,3.10
2022-12-06T23:45:35.362Z,3.10
2022-12-06T23:48:01.983Z,3.10
2022-12-06T23:50:28.485Z,3.10
2022-12-06T23:52:54.987Z,3.10
2022-12-06T23:55:21.471Z,3.10
2022-12-06T23:57:47.939Z,3.10
